Time;durP1;ratioP1;P1;durP2;ratioP2;P2;SDS_P1;SDS_P2;PMS_P1;PMS_P2;Temp;Humidity;BMP_temperature;BMP_pressure;BME280_temperature;BME280_humidity;BME280_pressure;Samples;Min_cycle;Max_cycle;Signal;HPM_P1;HPM_P2
2022/06/24 00:01:26;;;;;;;12.30;10.65;;;;;;;;;;4934768;29;20079;-81
2022/06/24 00:03:53;;;;;;;12.52;11.23;;;;;;;;;;4934395;29;20040;-81
2022/06/24 00:06:19;;;;;;;12.45;11.25;;;;;;;;;;4934726;29;20040;-81
2022/06/24 00:08:52;;;;;;;11.45;10.38;;;;;;;;;;4934619;29;20035;-81
2022/06/24 00:11:25;;;;;;;12.48;11.00;;;;;;;;;;4934632;29;20062;-81
2022/06/24 00:13:51;;;;;;;11.77;10.57;;;;;;;;;;4934635;29;20071;-82
2022/06/24 00:16:17;;;;;;;14.98;11.43;;;;;;;;;;4934626;29;20478;-81
2022/06/24 00:18:43;;;;;;;14.65;11.15;;;;;;;;;;5009645;28;20034;-82
2022/06/24 00:21:13;;;;;;;12.40;11.18;;;;;;;;;;5033849;28;20056;-82
2022/06/24 00:23:40;;;;;;;11.85;10.65;;;;;;;;;;5033592;28;20595;-81
2022/06/24 00:26:06;;;;;;;15.73;11.98;;;;;;;;;;5033608;28;20045;-82
2022/06/24 00:28:32;;;;;;;13.75;11.30;;;;;;;;;;5033944;28;20082;-82
2022/06/24 00:31:02;;;;;;;13.57;10.35;;;;;;;;;;5033330;28;20498;-78
2022/06/24 00:33:33;;;;;;;11.27;10.13;;;;;;;;;;5033771;28;20032;-83
2022/06/24 00:35:59;;;;;;;13.02;11.23;;;;;;;;;;5033739;28;20017;-77
2022/06/24 00:38:27;;;;;;;11.30;10.10;;;;;;;;;;5033694;28;20024;-83
2022/06/24 00:40:54;;;;;;;11.40;10.15;;;;;;;;;;5033561;28;20025;-83
2022/06/24 00:43:24;;;;;;;12.13;10.82;;;;;;;;;;5033563;28;20033;-84
2022/06/24 00:45:52;;;;;;;11.55;10.43;;;;;;;;;;5033741;28;20032;-83
2022/06/24 00:48:19;;;;;;;12.70;10.82;;;;;;;;;;5033372;28;20056;-83
2022/06/24 00:50:47;;;;;;;13.13;10.30;;;;;;;;;;5033516;28;20387;-83
2022/06/24 00:53:13;;;;;;;12.00;10.70;;;;;;;;;;5033269;28;20025;-82
2022/06/24 00:55:43;;;;;;;11.68;10.57;;;;;;;;;;5032466;28;20033;-83
2022/06/24 00:58:16;;;;;;;11.45;10.35;;;;;;;;;;5033207;28;20104;-80
2022/06/24 01:00:44;;;;;;;11.52;10.35;;;;;;;;;;5033255;28;20104;-81
2022/06/24 01:03:11;;;;;;;11.38;10.20;;;;;;;;;;5033091;28;20033;-81
2022/06/24 01:05:37;;;;;;;11.30;10.27;;;;;;;;;;5015329;28;20407;-81
2022/06/24 01:08:08;;;;;;;10.90;9.90;;;;;;;;;;5015359;28;20053;-82
2022/06/24 01:10:34;;;;;;;11.63;10.52;;;;;;;;;;5033004;28;20017;-80
2022/06/24 01:13:01;;;;;;;11.27;10.15;;;;;;;;;;5033629;28;20380;-84
2022/06/24 01:15:27;;;;;;;13.77;10.35;;;;;;;;;;5033741;28;20029;-84
2022/06/24 01:17:53;;;;;;;11.45;10.35;;;;;;;;;;5033416;28;20032;-84
2022/06/24 01:20:20;;;;;;;11.85;10.70;;;;;;;;;;5033562;28;20484;-85
2022/06/24 01:22:46;;;;;;;12.45;10.93;;;;;;;;;;5033323;28;20480;-84
2022/06/24 01:25:12;;;;;;;11.32;10.07;;;;;;;;;;5033205;28;20052;-81
2022/06/24 01:27:39;;;;;;;13.18;10.25;;;;;;;;;;5033035;28;20021;-80
2022/06/24 01:30:05;;;;;;;12.70;10.48;;;;;;;;;;5033034;28;20076;-71
2022/06/24 01:32:32;;;;;;;11.70;10.60;;;;;;;;;;5033555;28;20056;-77
2022/06/24 01:34:58;;;;;;;14.73;10.55;;;;;;;;;;5033383;28;20437;-81
2022/06/24 01:37:24;;;;;;;13.93;10.82;;;;;;;;;;5015914;28;20488;-81
2022/06/24 01:39:50;;;;;;;12.70;10.25;;;;;;;;;;5033571;28;20076;-85
2022/06/24 01:42:16;;;;;;;11.35;10.05;;;;;;;;;;5033511;28;20030;-85
2022/06/24 01:44:42;;;;;;;12.80;11.25;;;;;;;;;;5016034;28;20049;-85
2022/06/24 01:47:09;;;;;;;11.55;10.38;;;;;;;;;;5033435;28;20022;-86
2022/06/24 01:49:35;;;;;;;10.93;9.85;;;;;;;;;;5033464;28;20032;-85
2022/06/24 01:52:01;;;;;;;12.35;11.05;;;;;;;;;;5033039;28;20018;-82
2022/06/24 01:54:27;;;;;;;11.52;10.35;;;;;;;;;;5032765;28;20029;-82
2022/06/24 01:56:54;;;;;;;11.70;10.52;;;;;;;;;;5032929;28;20029;-81
2022/06/24 01:59:20;;;;;;;11.75;10.55;;;;;;;;;;5032921;28;20025;-79
2022/06/24 02:01:46;;;;;;;10.75;9.75;;;;;;;;;;5032893;28;20022;-81
2022/06/24 02:04:12;;;;;;;11.70;10.52;;;;;;;;;;5032394;28;20412;-81
2022/06/24 02:06:39;;;;;;;13.75;11.02;;;;;;;;;;5033032;28;20423;-81
2022/06/24 02:09:05;;;;;;;12.52;10.88;;;;;;;;;;5036075;28;20058;-81
2022/06/24 02:14:17;;;;;;;12.27;11.00;;;;;;;;;;5036196;28;20036;-81
2022/06/24 02:16:43;;;;;;;11.95;10.75;;;;;;;;;;5035969;28;20103;-82
2022/06/24 02:19:09;;;;;;;12.27;10.98;;;;;;;;;;5035832;28;20025;-81
2022/06/24 02:21:36;;;;;;;13.45;12.10;;;;;;;;;;5035793;28;20022;-80
2022/06/24 02:24:03;;;;;;;14.73;11.65;;;;;;;;;;5035779;28;20128;-81
2022/06/24 02:26:29;;;;;;;12.50;11.20;;;;;;;;;;5035863;28;20052;-81
2022/06/24 02:28:55;;;;;;;13.10;11.65;;;;;;;;;;5035773;28;20034;-81
2022/06/24 02:31:22;;;;;;;13.98;11.48;;;;;;;;;;5035849;28;20029;-81
2022/06/24 02:33:48;;;;;;;13.82;10.77;;;;;;;;;;5035730;28;20182;-81
2022/06/24 02:36:15;;;;;;;11.60;10.50;;;;;;;;;;5035824;28;20021;-81
2022/06/24 02:38:41;;;;;;;13.98;11.15;;;;;;;;;;5035830;28;20387;-81
2022/06/24 02:41:07;;;;;;;11.48;10.32;;;;;;;;;;5035488;28;20026;-81
2022/06/24 02:43:35;;;;;;;13.25;11.02;;;;;;;;;;5035778;28;20468;-80
2022/06/24 02:46:01;;;;;;;11.63;10.57;;;;;;;;;;5035586;28;20482;-80
2022/06/24 02:48:28;;;;;;;11.05;10.05;;;;;;;;;;5035350;28;20025;-81
2022/06/24 02:50:55;;;;;;;11.02;9.90;;;;;;;;;;5035332;28;20511;-80
2022/06/24 02:53:21;;;;;;;11.02;9.75;;;;;;;;;;5035294;28;20028;-81
2022/06/24 02:55:49;;;;;;;13.93;9.32;;;;;;;;;;5035349;28;20033;-81
2022/06/24 02:58:16;;;;;;;11.60;8.93;;;;;;;;;;5035236;28;20064;-81
2022/06/24 03:00:42;;;;;;;10.50;9.45;;;;;;;;;;5018002;28;20052;-82
2022/06/24 03:03:09;;;;;;;11.02;9.90;;;;;;;;;;5035095;28;20041;-82
2022/06/24 03:05:35;;;;;;;10.48;9.38;;;;;;;;;;5035268;28;20049;-82
2022/06/24 03:08:02;;;;;;;13.25;10.65;;;;;;;;;;5035314;28;20045;-83
2022/06/24 03:10:28;;;;;;;10.30;9.20;;;;;;;;;;5035195;28;20391;-84
2022/06/24 03:12:54;;;;;;;10.75;9.30;;;;;;;;;;5035534;28;20021;-83
2022/06/24 03:15:20;;;;;;;10.07;9.07;;;;;;;;;;5035159;28;20029;-83
2022/06/24 03:17:46;;;;;;;9.82;8.88;;;;;;;;;;5017389;28;20041;-84
2022/06/24 03:20:12;;;;;;;12.75;9.38;;;;;;;;;;5034468;28;20472;-84
2022/06/24 03:22:39;;;;;;;13.75;10.63;;;;;;;;;;5035010;28;20093;-84
2022/06/24 03:25:05;;;;;;;12.57;10.82;;;;;;;;;;5035118;28;20034;-83
2022/06/24 03:27:31;;;;;;;13.10;9.95;;;;;;;;;;5034982;28;20017;-84
2022/06/24 03:29:58;;;;;;;11.82;9.45;;;;;;;;;;5035106;28;20036;-84
2022/06/24 03:32:24;;;;;;;10.30;9.25;;;;;;;;;;5035101;28;20025;-83
2022/06/24 03:34:50;;;;;;;13.15;9.55;;;;;;;;;;5035042;28;20456;-77
2022/06/24 03:37:16;;;;;;;11.68;9.13;;;;;;;;;;5034868;28;20036;-83
2022/06/24 03:39:42;;;;;;;12.13;9.68;;;;;;;;;;5034853;28;20030;-83
2022/06/24 03:42:08;;;;;;;14.85;11.68;;;;;;;;;;5034653;28;20033;-84
2022/06/24 03:44:34;;;;;;;10.98;9.30;;;;;;;;;;5034676;28;20091;-77
2022/06/24 03:47:03;;;;;;;10.35;9.35;;;;;;;;;;5034707;28;20384;-82
2022/06/24 03:49:30;;;;;;;11.43;9.35;;;;;;;;;;5034533;28;20422;-84
2022/06/24 03:51:57;;;;;;;10.73;9.00;;;;;;;;;;5034450;28;20026;-83
2022/06/24 03:54:23;;;;;;;14.63;8.55;;;;;;;;;;5034607;28;20479;-83
2022/06/24 03:56:49;;;;;;;11.02;9.07;;;;;;;;;;5034480;28;20105;-83
2022/06/24 03:59:15;;;;;;;11.25;8.18;;;;;;;;;;5034279;28;20025;-82
2022/06/24 04:01:41;;;;;;;9.82;8.55;;;;;;;;;;5034390;28;20053;-83
2022/06/24 04:04:07;;;;;;;9.40;8.50;;;;;;;;;;5033889;28;20084;-83
2022/06/24 04:06:33;;;;;;;9.60;7.65;;;;;;;;;;5034120;28;20032;-82
2022/06/24 04:08:59;;;;;;;11.52;9.38;;;;;;;;;;5034354;28;20071;-82
2022/06/24 04:11:25;;;;;;;11.25;8.52;;;;;;;;;;5034132;28;20173;-82
2022/06/24 04:13:51;;;;;;;11.88;9.57;;;;;;;;;;5034007;28;20488;-83
2022/06/24 04:16:17;;;;;;;9.98;8.73;;;;;;;;;;5034171;28;20025;-83
2022/06/24 04:18:44;;;;;;;12.15;9.02;;;;;;;;;;5033931;28;20025;-82
2022/06/24 04:21:11;;;;;;;10.00;8.68;;;;;;;;;;5034073;28;20029;-81
2022/06/24 04:23:37;;;;;;;11.40;7.88;;;;;;;;;;5033830;28;20030;-82
2022/06/24 04:26:03;;;;;;;11.07;7.50;;;;;;;;;;5033615;28;20514;-80
2022/06/24 04:28:29;;;;;;;9.73;8.05;;;;;;;;;;5033785;28;20104;-81
2022/06/24 04:30:55;;;;;;;9.25;8.35;;;;;;;;;;5033236;28;20468;-80
2022/06/24 04:33:22;;;;;;;11.27;7.85;;;;;;;;;;5033705;28;20388;-81
2022/06/24 04:35:48;;;;;;;10.20;7.93;;;;;;;;;;5033818;28;20022;-82
2022/06/24 04:38:14;;;;;;;8.43;7.25;;;;;;;;;;5033652;28;20530;-82
2022/06/24 04:40:40;;;;;;;9.68;8.05;;;;;;;;;;5033829;28;20044;-83
2022/06/24 04:43:07;;;;;;;8.48;7.40;;;;;;;;;;5033442;28;20083;-82
2022/06/24 04:45:33;;;;;;;7.97;7.13;;;;;;;;;;5033634;28;20361;-81
2022/06/24 04:48:00;;;;;;;8.32;7.45;;;;;;;;;;5033318;28;20017;-81
2022/06/24 04:50:26;;;;;;;12.93;7.80;;;;;;;;;;5015578;28;20128;-81
2022/06/24 04:52:52;;;;;;;7.75;7.05;;;;;;;;;;5033176;28;20025;-77
2022/06/24 04:55:19;;;;;;;9.05;7.60;;;;;;;;;;5033109;28;20028;-81
2022/06/24 04:57:45;;;;;;;7.90;6.97;;;;;;;;;;5015171;28;20403;-82
2022/06/24 05:00:11;;;;;;;9.27;8.10;;;;;;;;;;5033490;28;20025;-81
2022/06/24 05:02:38;;;;;;;13.88;7.28;;;;;;;;;;5033108;28;20033;-80
2022/06/24 05:05:05;;;;;;;11.10;7.15;;;;;;;;;;5032859;28;20100;-79
2022/06/24 05:07:31;;;;;;;10.40;8.07;;;;;;;;;;5033018;28;20014;-81
2022/06/24 05:09:57;;;;;;;9.57;8.38;;;;;;;;;;5033307;28;20021;-81
2022/06/24 05:12:23;;;;;;;9.02;7.82;;;;;;;;;;5015185;28;20120;-81
2022/06/24 05:14:49;;;;;;;9.18;7.55;;;;;;;;;;5032985;28;20036;-81
2022/06/24 05:17:16;;;;;;;10.57;7.00;;;;;;;;;;5032901;28;20472;-81
2022/06/24 05:19:42;;;;;;;7.78;7.03;;;;;;;;;;5032796;28;20028;-81
2022/06/24 05:22:08;;;;;;;7.53;6.35;;;;;;;;;;5032901;28;20022;-71
2022/06/24 05:24:34;;;;;;;8.40;7.50;;;;;;;;;;5032761;28;20550;-82
2022/06/24 05:27:00;;;;;;;11.45;6.75;;;;;;;;;;5032864;28;20421;-81
2022/06/24 05:29:26;;;;;;;9.00;6.95;;;;;;;;;;5032778;28;20026;-81
2022/06/24 05:31:52;;;;;;;10.75;6.47;;;;;;;;;;5033000;28;20083;-80
2022/06/24 05:34:18;;;;;;;9.63;7.82;;;;;;;;;;5032949;28;20112;-82
2022/06/24 05:36:44;;;;;;;9.80;6.78;;;;;;;;;;5032901;28;20030;-77
2022/06/24 05:39:11;;;;;;;10.15;7.80;;;;;;;;;;5032766;28;20034;-80
2022/06/24 05:41:38;;;;;;;12.98;7.20;;;;;;;;;;5032646;28;20021;-81
2022/06/24 05:44:04;;;;;;;9.77;7.88;;;;;;;;;;5036378;28;20037;-79
2022/06/24 05:46:30;;;;;;;12.35;8.32;;;;;;;;;;5036586;28;20022;-81
2022/06/24 05:48:57;;;;;;;12.90;8.18;;;;;;;;;;5036602;28;20064;-80
2022/06/24 05:51:23;;;;;;;11.05;7.97;;;;;;;;;;5036499;28;20060;-81
2022/06/24 05:56:35;;;;;;;9.25;6.90;;;;;;;;;;5036416;28;20087;-81
2022/06/24 05:59:01;;;;;;;12.80;7.80;;;;;;;;;;5036178;28;20045;-80
2022/06/24 06:01:27;;;;;;;12.68;7.75;;;;;;;;;;5036444;28;20037;-81
2022/06/24 06:03:53;;;;;;;11.32;7.43;;;;;;;;;;5035908;28;20029;-80
2022/06/24 06:06:20;;;;;;;16.55;7.97;;;;;;;;;;5036094;28;20105;-81
2022/06/24 06:08:46;;;;;;;9.55;7.68;;;;;;;;;;5036311;28;20026;-81
2022/06/24 06:11:17;;;;;;;8.93;6.85;;;;;;;;;;5036296;28;20076;-81
2022/06/24 06:13:44;;;;;;;13.73;8.60;;;;;;;;;;5036189;28;20054;-81
2022/06/24 06:16:10;;;;;;;8.50;7.63;;;;;;;;;;5036120;28;20075;-81
2022/06/24 06:18:36;;;;;;;8.27;6.93;;;;;;;;;;5018226;28;20044;-83
2022/06/24 06:21:03;;;;;;;12.13;8.13;;;;;;;;;;5035862;28;20060;-82
2022/06/24 06:23:29;;;;;;;11.57;8.32;;;;;;;;;;5035901;28;20034;-80
2022/06/24 06:25:56;;;;;;;11.68;8.35;;;;;;;;;;5035761;28;20029;-81
2022/06/24 06:28:22;;;;;;;12.13;8.05;;;;;;;;;;5035882;28;20053;-78
2022/06/24 06:30:48;;;;;;;13.52;8.57;;;;;;;;;;5035805;28;20029;-80
2022/06/24 06:33:14;;;;;;;15.13;9.32;;;;;;;;;;5036165;28;20083;-80
2022/06/24 06:35:40;;;;;;;14.40;8.60;;;;;;;;;;5035908;28;20029;-83
2022/06/24 06:38:07;;;;;;;10.93;7.65;;;;;;;;;;5035975;28;20025;-76
2022/06/24 06:40:36;;;;;;;15.32;7.93;;;;;;;;;;5035972;28;20021;-81
2022/06/24 06:43:05;;;;;;;20.30;9.70;;;;;;;;;;5035874;28;20099;-83
2022/06/24 06:45:31;;;;;;;11.52;8.70;;;;;;;;;;5035607;28;20113;-83
2022/06/24 06:47:57;;;;;;;9.65;7.72;;;;;;;;;;5035592;28;20075;-82
2022/06/24 06:50:23;;;;;;;12.73;8.10;;;;;;;;;;5035395;28;20065;-82
2022/06/24 06:52:49;;;;;;;16.08;11.05;;;;;;;;;;5017727;28;20033;-81
2022/06/24 06:55:15;;;;;;;12.25;8.63;;;;;;;;;;5034061;28;20093;-80
2022/06/24 06:57:41;;;;;;;12.20;8.95;;;;;;;;;;5035302;28;20030;-80
2022/06/24 07:00:09;;;;;;;12.02;8.10;;;;;;;;;;5035055;28;20510;-80
2022/06/24 07:02:35;;;;;;;11.07;7.78;;;;;;;;;;5035394;28;20411;-82
2022/06/24 07:05:01;;;;;;;10.32;8.13;;;;;;;;;;5035054;28;20049;-81
2022/06/24 07:07:27;;;;;;;10.20;8.23;;;;;;;;;;5001209;28;20033;-82
2022/06/24 07:09:54;;;;;;;9.73;8.25;;;;;;;;;;5035391;28;20021;-82
2022/06/24 07:12:21;;;;;;;15.27;7.18;;;;;;;;;;5035224;28;20017;-83
2022/06/24 07:14:47;;;;;;;12.18;8.10;;;;;;;;;;5035159;28;20040;-80
2022/06/24 07:17:13;;;;;;;11.43;7.60;;;;;;;;;;5035261;28;20139;-82
2022/06/24 07:19:39;;;;;;;9.77;6.90;;;;;;;;;;5034848;28;20026;-73
2022/06/24 07:22:05;;;;;;;10.48;7.05;;;;;;;;;;5017046;28;20022;-82
2022/06/24 07:24:31;;;;;;;11.30;7.50;;;;;;;;;;5034495;28;20107;-82
2022/06/24 07:26:57;;;;;;;10.98;7.00;;;;;;;;;;5034617;28;20025;-82
2022/06/24 07:29:23;;;;;;;7.93;6.75;;;;;;;;;;5034844;28;20029;-82
2022/06/24 07:31:49;;;;;;;8.38;5.30;;;;;;;;;;5035023;28;20021;-85
2022/06/24 07:34:16;;;;;;;5.85;5.25;;;;;;;;;;5034564;28;20030;-82
2022/06/24 07:36:43;;;;;;;10.65;6.13;;;;;;;;;;5034590;28;20033;-83
2022/06/24 07:39:10;;;;;;;7.80;5.45;;;;;;;;;;5034636;28;20021;-82
2022/06/24 07:41:36;;;;;;;8.07;5.90;;;;;;;;;;5034597;28;20026;-69
2022/06/24 07:44:03;;;;;;;8.15;6.00;;;;;;;;;;5016545;28;20399;-80
2022/06/24 07:46:29;;;;;;;8.95;5.32;;;;;;;;;;5034102;28;20021;-79
2022/06/24 07:48:55;;;;;;;6.97;5.47;;;;;;;;;;5034442;28;20025;-77
2022/06/24 07:51:22;;;;;;;7.68;5.63;;;;;;;;;;5034422;28;20030;-80
2022/06/24 07:53:49;;;;;;;5.93;5.20;;;;;;;;;;5034238;28;20544;-80
2022/06/24 07:59:00;;;;;;;10.05;6.53;;;;;;;;;;5034475;28;20036;-80
2022/06/24 08:01:26;;;;;;;6.75;5.10;;;;;;;;;;5034562;28;20079;-80
2022/06/24 08:03:52;;;;;;;6.28;5.43;;;;;;;;;;5033946;28;20121;-81
2022/06/24 08:06:18;;;;;;;8.18;4.72;;;;;;;;;;5033536;28;20033;-80
2022/06/24 08:08:44;;;;;;;14.95;5.60;;;;;;;;;;5033991;28;20040;-80
2022/06/24 08:11:11;;;;;;;6.15;4.40;;;;;;;;;;5034182;28;20049;-76
2022/06/24 08:13:37;;;;;;;8.35;5.30;;;;;;;;;;5034166;28;20067;-81
2022/06/24 08:16:03;;;;;;;3.65;3.30;;;;;;;;;;5033909;28;20029;-76
2022/06/24 08:18:29;;;;;;;5.25;3.95;;;;;;;;;;5033676;28;20026;-81
2022/06/24 08:20:55;;;;;;;7.18;4.22;;;;;;;;;;5033627;28;20022;-81
2022/06/24 08:23:21;;;;;;;5.70;3.70;;;;;;;;;;5033606;28;20096;-81
2022/06/24 08:25:47;;;;;;;4.68;3.70;;;;;;;;;;5033913;28;20104;-80
2022/06/24 08:28:13;;;;;;;6.43;4.05;;;;;;;;;;5034109;28;20022;-82
2022/06/24 08:30:39;;;;;;;4.60;3.80;;;;;;;;;;5033715;28;20029;-81
2022/06/24 08:33:05;;;;;;;6.55;4.18;;;;;;;;;;5033699;28;20391;-75
2022/06/24 08:35:32;;;;;;;4.82;3.70;;;;;;;;;;5033478;28;20029;-79
2022/06/24 08:37:58;;;;;;;5.57;3.80;;;;;;;;;;5033406;28;20029;-80
2022/06/24 08:40:28;;;;;;;5.65;4.03;;;;;;;;;;5033409;28;20032;-79
2022/06/24 08:42:55;;;;;;;6.20;4.22;;;;;;;;;;5033428;28;20029;-80
2022/06/24 08:45:21;;;;;;;6.05;3.40;;;;;;;;;;5033239;28;20025;-80
2022/06/24 08:47:48;;;;;;;4.80;3.80;;;;;;;;;;5033428;28;20026;-81
2022/06/24 08:50:15;;;;;;;4.53;3.53;;;;;;;;;;5033025;28;20398;-77
2022/06/24 08:52:46;;;;;;;15.20;3.90;;;;;;;;;;5015589;28;20103;-80
2022/06/24 08:55:14;;;;;;;4.03;3.05;;;;;;;;;;5033115;28;20091;-80
2022/06/24 08:57:40;;;;;;;4.05;3.65;;;;;;;;;;5033360;28;20025;-81
2022/06/24 09:00:07;;;;;;;4.38;3.22;;;;;;;;;;5033194;28;20104;-81
2022/06/24 09:02:33;;;;;;;16.17;5.00;;;;;;;;;;5033350;28;20034;-81
2022/06/24 09:05:00;;;;;;;7.45;4.43;;;;;;;;;;5033105;28;20629;-81
2022/06/24 09:07:26;;;;;;;4.07;3.60;;;;;;;;;;5032990;28;20053;-80
2022/06/24 09:09:59;;;;;;;4.55;3.88;;;;;;;;;;5033113;28;20032;-81
2022/06/24 09:12:28;;;;;;;6.40;4.22;;;;;;;;;;5033146;28;20379;-79
2022/06/24 09:14:54;;;;;;;5.53;3.47;;;;;;;;;;5033001;28;20014;-81
2022/06/24 09:17:28;;;;;;;4.50;3.75;;;;;;;;;;5033975;28;20049;-81
2022/06/24 09:19:54;;;;;;;5.35;3.33;;;;;;;;;;5037045;28;20037;-81
2022/06/24 09:22:23;;;;;;;4.32;3.33;;;;;;;;;;5037120;28;20029;-76
2022/06/24 09:24:51;;;;;;;5.82;3.72;;;;;;;;;;5037031;28;20056;-79
2022/06/24 09:27:17;;;;;;;6.45;3.60;;;;;;;;;;5036910;28;20014;-81
2022/06/24 09:29:49;;;;;;;9.43;4.18;;;;;;;;;;5037012;28;20024;-81
2022/06/24 09:32:16;;;;;;;7.22;3.90;;;;;;;;;;5037108;28;20037;-81
2022/06/24 09:34:58;;;;;;;4.95;3.22;;;;;;;;;;5037007;28;20479;-82
2022/06/24 09:37:36;;;;;;;5.28;4.13;;;;;;;;;;5037028;28;20098;-73
2022/06/24 09:40:28;;;;;;;6.43;3.35;;;;;;;;;;5036680;28;20117;-81
2022/06/24 09:43:01;;;;;;;6.63;3.78;;;;;;;;;;5032127;28;20077;-70
2022/06/24 09:45:43;;;;;;;6.53;3.60;;;;;;;;;;5036682;28;20549;-79
2022/06/24 09:48:10;;;;;;;6.18;3.60;;;;;;;;;;5036710;28;20120;-81
2022/06/24 09:50:37;;;;;;;6.32;3.90;;;;;;;;;;5036399;28;20029;-81
2022/06/24 09:53:03;;;;;;;5.50;4.07;;;;;;;;;;5036264;28;20053;-80
2022/06/24 09:55:29;;;;;;;7.30;3.97;;;;;;;;;;5036398;28;20018;-80
2022/06/24 09:57:56;;;;;;;10.38;4.28;;;;;;;;;;5036277;28;20029;-81
2022/06/24 10:00:40;;;;;;;5.40;3.55;;;;;;;;;;5036478;28;20022;-81
2022/06/24 10:03:08;;;;;;;9.65;4.55;;;;;;;;;;5036275;28;20091;-69
2022/06/24 10:05:36;;;;;;;4.55;3.58;;;;;;;;;;5036113;28;20486;-81
2022/06/24 10:08:03;;;;;;;4.60;3.58;;;;;;;;;;5036185;28;20029;-78
2022/06/24 10:10:31;;;;;;;4.25;3.38;;;;;;;;;;5036249;28;20057;-80
2022/06/24 10:13:01;;;;;;;9.23;4.70;;;;;;;;;;5018620;28;20021;-82
2022/06/24 10:15:27;;;;;;;5.05;4.15;;;;;;;;;;5035864;28;20475;-82
2022/06/24 10:17:53;;;;;;;6.97;3.47;;;;;;;;;;5036265;28;20075;-81
2022/06/24 10:20:20;;;;;;;4.25;3.38;;;;;;;;;;5035932;28;20021;-82
2022/06/24 10:22:49;;;;;;;4.90;3.50;;;;;;;;;;5035868;28;20022;-76
2022/06/24 10:25:21;;;;;;;6.45;3.90;;;;;;;;;;5018209;28;20074;-81
2022/06/24 10:28:00;;;;;;;4.05;3.22;;;;;;;;;;5035662;28;20028;-79
2022/06/24 10:30:41;;;;;;;4.80;3.22;;;;;;;;;;5017705;28;20336;-74
2022/06/24 10:33:13;;;;;;;6.28;3.70;;;;;;;;;;5036043;28;20033;-79
2022/06/24 10:35:58;;;;;;;6.18;4.03;;;;;;;;;;5035927;28;20021;-82
2022/06/24 10:38:25;;;;;;;7.05;4.20;;;;;;;;;;5035798;28;20036;-81
2022/06/24 10:40:52;;;;;;;8.70;4.03;;;;;;;;;;5035586;28;20022;-80
2022/06/24 10:43:34;;;;;;;5.13;3.63;;;;;;;;;;5035623;28;20061;-82
2022/06/24 10:46:12;;;;;;;6.38;4.18;;;;;;;;;;5035553;28;20024;-81
2022/06/24 10:48:44;;;;;;;5.45;3.38;;;;;;;;;;5035592;28;20030;-81
2022/06/24 10:51:16;;;;;;;4.20;3.38;;;;;;;;;;5035455;28;20060;-81
2022/06/24 10:54:01;;;;;;;7.03;3.47;;;;;;;;;;5035548;28;20025;-81
2022/06/24 10:56:39;;;;;;;5.15;3.70;;;;;;;;;;5035531;28;20160;-80
2022/06/24 10:59:05;;;;;;;5.10;4.25;;;;;;;;;;5035315;28;20021;-81
2022/06/24 11:01:32;;;;;;;5.50;3.70;;;;;;;;;;5035339;28;20049;-80
2022/06/24 11:03:59;;;;;;;8.52;3.90;;;;;;;;;;5034996;28;20088;-81
2022/06/24 11:06:25;;;;;;;4.68;3.25;;;;;;;;;;5035117;28;20036;-82
2022/06/24 11:08:51;;;;;;;3.15;2.78;;;;;;;;;;5035140;28;20029;-81
2022/06/24 11:11:27;;;;;;;6.65;3.75;;;;;;;;;;5035066;28;20495;-81
2022/06/24 11:13:53;;;;;;;8.68;3.92;;;;;;;;;;5035122;28;20029;-81
2022/06/24 11:16:19;;;;;;;4.63;3.90;;;;;;;;;;5035143;28;20034;-83
2022/06/24 11:18:49;;;;;;;5.90;3.90;;;;;;;;;;5034996;28;20079;-81
2022/06/24 11:21:18;;;;;;;6.50;3.88;;;;;;;;;;5034797;28;20033;-80
2022/06/24 11:23:46;;;;;;;14.18;5.78;;;;;;;;;;5034870;28;20032;-80
2022/06/24 11:26:12;;;;;;;5.90;3.70;;;;;;;;;;5034926;28;20039;-81
2022/06/24 11:28:39;;;;;;;6.05;4.18;;;;;;;;;;5034664;28;20107;-81
2022/06/24 11:31:21;;;;;;;5.57;3.72;;;;;;;;;;5034586;28;20454;-79
2022/06/24 11:34:10;;;;;;;3.85;3.40;;;;;;;;;;5034723;28;20026;-80
2022/06/24 11:36:38;;;;;;;7.18;3.83;;;;;;;;;;4935443;29;20043;-81
2022/06/24 11:39:05;;;;;;;8.02;4.50;;;;;;;;;;4935436;29;20036;-81
2022/06/24 11:41:46;;;;;;;5.38;3.75;;;;;;;;;;4934765;29;20040;-72
2022/06/24 11:44:13;;;;;;;5.07;3.90;;;;;;;;;;4935119;29;20049;-76
2022/06/24 11:46:39;;;;;;;5.30;3.65;;;;;;;;;;4935000;28;20079;-81
2022/06/24 11:49:11;;;;;;;4.68;3.53;;;;;;;;;;4935264;29;20051;-70
2022/06/24 11:51:38;;;;;;;4.43;3.75;;;;;;;;;;4934960;29;20032;-69
2022/06/24 11:54:04;;;;;;;6.80;4.03;;;;;;;;;;4935183;29;20035;-81
2022/06/24 11:56:32;;;;;;;4.40;3.65;;;;;;;;;;4935106;29;20024;-80
2022/06/24 11:58:59;;;;;;;3.92;3.53;;;;;;;;;;4934956;29;20490;-80
2022/06/24 12:01:26;;;;;;;4.95;3.67;;;;;;;;;;4934671;29;20473;-80
2022/06/24 12:03:54;;;;;;;6.75;3.85;;;;;;;;;;4934707;29;20035;-73
2022/06/24 12:06:20;;;;;;;5.05;3.30;;;;;;;;;;4934757;29;20040;-81
2022/06/24 12:08:47;;;;;;;4.28;3.30;;;;;;;;;;4934931;29;20032;-72
2022/06/24 12:11:14;;;;;;;3.95;3.05;;;;;;;;;;4934753;29;20363;-81
2022/06/24 12:13:41;;;;;;;4.70;3.10;;;;;;;;;;4988371;28;20038;-81
2022/06/24 12:16:07;;;;;;;4.45;3.30;;;;;;;;;;5033875;28;20515;-76
2022/06/24 12:18:34;;;;;;;4.32;3.42;;;;;;;;;;5033621;28;20026;-79
2022/06/24 12:21:04;;;;;;;4.38;3.53;;;;;;;;;;5033697;28;20537;-80
2022/06/24 12:23:36;;;;;;;4.45;3.15;;;;;;;;;;5033601;28;20468;-79
2022/06/24 12:26:17;;;;;;;3.72;3.33;;;;;;;;;;5033843;28;20036;-81
2022/06/24 12:28:44;;;;;;;4.75;4.20;;;;;;;;;;5033358;28;20523;-80
2022/06/24 12:31:11;;;;;;;10.40;4.88;;;;;;;;;;5033611;28;20032;-78
2022/06/24 12:33:49;;;;;;;4.40;3.50;;;;;;;;;;5033547;28;20156;-81
2022/06/24 12:36:16;;;;;;;4.57;3.45;;;;;;;;;;5015754;28;20026;-79
2022/06/24 12:38:45;;;;;;;8.65;4.22;;;;;;;;;;5033324;28;20427;-79
2022/06/24 12:41:14;;;;;;;6.40;4.40;;;;;;;;;;5033246;28;20037;-80
2022/06/24 12:43:53;;;;;;;4.40;3.70;;;;;;;;;;5033189;28;20116;-73
2022/06/24 12:46:20;;;;;;;7.90;3.92;;;;;;;;;;5033413;28;20101;-80
2022/06/24 12:51:31;;;;;;;4.60;3.80;;;;;;;;;;5033091;28;20040;-80
2022/06/24 12:53:58;;;;;;;5.45;3.70;;;;;;;;;;5033156;28;20022;-81
2022/06/24 12:56:24;;;;;;;5.88;3.72;;;;;;;;;;5033296;28;20030;-79
2022/06/24 12:58:53;;;;;;;6.47;3.85;;;;;;;;;;5033172;28;20057;-72
2022/06/24 13:01:20;;;;;;;6.55;3.75;;;;;;;;;;5032953;28;20021;-69
2022/06/24 13:03:46;;;;;;;5.07;3.38;;;;;;;;;;5032858;28;20033;-68
2022/06/24 13:06:12;;;;;;;5.45;3.60;;;;;;;;;;5032886;28;20084;-68
2022/06/24 13:08:38;;;;;;;12.27;5.05;;;;;;;;;;5033072;28;20155;-80
2022/06/24 13:11:04;;;;;;;5.18;4.30;;;;;;;;;;5033169;28;20436;-81
2022/06/24 13:13:31;;;;;;;5.38;3.90;;;;;;;;;;5033219;28;20067;-80
2022/06/24 13:15:57;;;;;;;10.00;4.47;;;;;;;;;;5033181;28;20095;-69
2022/06/24 13:18:23;;;;;;;6.53;4.20;;;;;;;;;;5032941;28;20033;-70
2022/06/24 13:20:49;;;;;;;6.15;5.55;;;;;;;;;;5032857;28;20151;-81
2022/06/24 13:23:15;;;;;;;9.07;5.30;;;;;;;;;;5032772;28;20030;-69
2022/06/24 13:25:42;;;;;;;4.22;3.67;;;;;;;;;;5032915;28;20034;-80
2022/06/24 13:28:08;;;;;;;6.55;4.13;;;;;;;;;;5032998;28;20419;-81
2022/06/24 13:30:34;;;;;;;8.65;5.13;;;;;;;;;;5032865;28;20036;-81
2022/06/24 13:33:00;;;;;;;4.85;3.88;;;;;;;;;;5032836;28;20045;-80
2022/06/24 13:35:26;;;;;;;5.50;4.22;;;;;;;;;;5032815;28;20033;-80
2022/06/24 13:37:52;;;;;;;8.10;4.32;;;;;;;;;;5032677;28;20476;-81
2022/06/24 13:40:18;;;;;;;5.53;4.20;;;;;;;;;;5032775;28;20487;-81
2022/06/24 13:42:45;;;;;;;5.05;4.03;;;;;;;;;;5032620;28;20112;-69
2022/06/24 13:45:11;;;;;;;10.68;4.43;;;;;;;;;;5032741;28;20030;-80
2022/06/24 13:47:37;;;;;;;6.70;4.60;;;;;;;;;;5032800;28;20028;-82
2022/06/24 13:50:04;;;;;;;5.80;4.60;;;;;;;;;;5032741;28;20551;-81
2022/06/24 13:52:30;;;;;;;12.20;5.93;;;;;;;;;;5032864;28;20480;-80
2022/06/24 13:54:57;;;;;;;6.85;5.68;;;;;;;;;;5032685;28;20037;-68
2022/06/24 13:57:23;;;;;;;5.63;4.38;;;;;;;;;;5032666;28;20116;-80
2022/06/24 13:59:50;;;;;;;5.93;5.18;;;;;;;;;;5033053;28;20090;-81
2022/06/24 14:02:17;;;;;;;5.03;4.50;;;;;;;;;;5032971;28;20471;-79
2022/06/24 14:04:44;;;;;;;6.00;5.40;;;;;;;;;;5035505;28;20061;-80
2022/06/24 14:07:10;;;;;;;6.13;3.97;;;;;;;;;;5036164;28;20022;-80
2022/06/24 14:09:36;;;;;;;10.15;4.25;;;;;;;;;;5036136;28;20018;-81
2022/06/24 14:12:03;;;;;;;5.88;4.53;;;;;;;;;;5036131;28;20025;-81
2022/06/24 14:14:29;;;;;;;4.65;4.00;;;;;;;;;;5036415;28;20107;-81
2022/06/24 14:16:55;;;;;;;5.63;4.40;;;;;;;;;;5036094;28;20492;-79
2022/06/24 14:19:21;;;;;;;5.88;4.57;;;;;;;;;;5036418;28;20167;-80
2022/06/24 14:21:47;;;;;;;5.25;3.72;;;;;;;;;;5035751;28;20029;-79
2022/06/24 14:24:31;;;;;;;6.07;4.95;;;;;;;;;;5035840;28;20039;-81
2022/06/24 14:26:57;;;;;;;5.45;4.40;;;;;;;;;;5036240;28;20491;-75
2022/06/24 14:29:23;;;;;;;7.28;5.28;;;;;;;;;;5036200;28;20109;-82
2022/06/24 14:31:49;;;;;;;5.10;4.30;;;;;;;;;;5035820;28;20029;-79
2022/06/24 14:34:16;;;;;;;5.32;4.70;;;;;;;;;;5035695;28;20108;-81
2022/06/24 14:36:42;;;;;;;4.93;4.20;;;;;;;;;;5035490;28;20028;-79
2022/06/24 14:41:52;;;;;;;6.07;4.10;;;;;;;;;;5035896;28;20076;-81
2022/06/24 14:44:18;;;;;;;6.78;4.00;;;;;;;;;;5035236;28;20037;-73
2022/06/24 14:46:45;;;;;;;5.30;4.80;;;;;;;;;;5035559;28;20022;-78
2022/06/24 14:49:11;;;;;;;5.75;4.05;;;;;;;;;;5035382;28;20029;-79